createdAt,value
2022-10-06T00:01:58.839Z,5.27
2022-10-06T00:04:27.659Z,5.80
2022-10-06T00:06:55.690Z,5.40
2022-10-06T00:09:25.881Z,5.70
2022-10-06T00:11:54.693Z,5.87
2022-10-06T00:14:23.758Z,4.90
2022-10-06T00:16:52.698Z,5.47
2022-10-06T00:19:24.695Z,6.17
2022-10-06T00:21:53.341Z,4.90
2022-10-06T00:24:23.190Z,5.97
2022-10-06T00:26:54.008Z,5.93
2022-10-06T00:29:26.192Z,5.60
2022-10-06T00:31:57.637Z,6.30
2022-10-06T00:34:29.781Z,6.13
2022-10-06T00:36:58.721Z,6.97
2022-10-06T00:39:27.799Z,6.30
2022-10-06T00:41:55.825Z,5.90
2022-10-06T00:44:24.704Z,6.43
2022-10-06T00:46:54.866Z,5.80
2022-10-06T00:49:29.764Z,8.43
2022-10-06T00:52:01.708Z,5.50
2022-10-06T00:54:29.912Z,6.67
2022-10-06T00:56:58.824Z,6.30
2022-10-06T00:59:27.689Z,6.03
2022-10-06T01:02:03.117Z,6.27
2022-10-06T01:04:34.080Z,6.20
2022-10-06T01:07:03.060Z,5.73
2022-10-06T01:09:31.938Z,5.63
2022-10-06T01:12:03.699Z,6.13
2022-10-06T01:14:32.204Z,6.80
2022-10-06T01:17:05.768Z,6.60
2022-10-06T01:19:44.848Z,6.60
2022-10-06T01:22:16.076Z,6.60
2022-10-06T01:24:46.619Z,5.70
2022-10-06T01:27:16.311Z,6.40
2022-10-06T01:29:44.647Z,6.70
2022-10-06T01:32:15.459Z,6.13
2022-10-06T01:34:43.602Z,5.93
2022-10-06T01:37:11.800Z,6.40
2022-10-06T01:39:39.840Z,6.70
2022-10-06T01:42:11.697Z,6.20
2022-10-06T01:44:41.791Z,6.20
2022-10-06T01:47:10.861Z,5.57
2022-10-06T01:49:40.388Z,6.20
2022-10-06T01:52:09.341Z,6.70
2022-10-06T01:54:37.422Z,6.27
2022-10-06T01:57:06.762Z,5.87
2022-10-06T01:59:36.209Z,6.03
2022-10-06T02:02:05.792Z,6.53
2022-10-06T02:04:33.947Z,5.93
2022-10-06T02:07:03.397Z,6.73
2022-10-06T02:09:42.263Z,6.97
2022-10-06T02:12:10.851Z,6.23
2022-10-06T02:14:43.763Z,5.80
2022-10-06T02:17:14.503Z,6.00
2022-10-06T02:19:42.594Z,6.33
2022-10-06T02:22:12.267Z,6.03
2022-10-06T02:24:40.376Z,6.40
2022-10-06T02:27:11.319Z,5.70
2022-10-06T02:29:39.830Z,6.53
2022-10-06T02:32:13.253Z,6.37
2022-10-06T02:34:41.347Z,6.17
2022-10-06T02:37:11.326Z,6.00
2022-10-06T02:39:42.013Z,6.00
2022-10-06T02:42:11.236Z,6.30
2022-10-06T02:44:40.672Z,5.67
2022-10-06T02:47:14.571Z,6.10
2022-10-06T02:49:43.187Z,5.80
2022-10-06T02:52:14.134Z,6.57
2022-10-06T02:54:42.693Z,6.27
2022-10-06T02:57:11.927Z,6.60
2022-10-06T02:59:40.539Z,6.33
2022-10-06T03:02:10.011Z,5.77
2022-10-06T03:04:40.050Z,6.23
2022-10-06T03:07:08.266Z,6.20
2022-10-06T03:09:38.646Z,6.53
2022-10-06T03:12:06.972Z,6.47
2022-10-06T03:14:40.612Z,5.93
2022-10-06T03:17:10.687Z,6.63
2022-10-06T03:19:49.200Z,6.87
2022-10-06T03:22:17.483Z,6.90
2022-10-06T03:25:07.263Z,7.17
2022-10-06T03:27:36.745Z,6.40
2022-10-06T03:30:08.213Z,6.37
2022-10-06T03:32:41.067Z,6.43
2022-10-06T03:35:15.676Z,6.80
2022-10-06T03:37:46.712Z,6.00
2022-10-06T03:40:15.654Z,6.67
2022-10-06T03:42:45.022Z,6.40
2022-10-06T03:45:13.947Z,6.47
2022-10-06T03:47:43.091Z,7.27
2022-10-06T03:50:12.792Z,6.80
2022-10-06T03:52:40.992Z,5.80
2022-10-06T03:55:10.623Z,6.17
2022-10-06T03:57:40.941Z,7.00
2022-10-06T04:00:12.383Z,6.60
2022-10-06T04:02:40.945Z,6.83
2022-10-06T04:05:10.636Z,5.80
2022-10-06T04:07:40.343Z,6.43
2022-10-06T04:10:11.876Z,7.87
2022-10-06T04:12:41.014Z,6.63
2022-10-06T04:15:11.077Z,6.20
2022-10-06T04:17:41.491Z,7.03
2022-10-06T04:20:10.148Z,5.43
2022-10-06T04:22:39.270Z,6.90
2022-10-06T04:25:09.754Z,6.90
2022-10-06T04:27:39.386Z,5.70
2022-10-06T04:30:12.663Z,7.73
2022-10-06T04:32:43.252Z,7.17
2022-10-06T04:35:11.640Z,6.67
2022-10-06T04:37:39.781Z,7.90
2022-10-06T04:40:10.430Z,6.93
2022-10-06T04:42:41.353Z,6.37
2022-10-06T04:45:15.673Z,7.00
2022-10-06T04:47:46.929Z,6.90
2022-10-06T04:50:15.073Z,6.80
2022-10-06T04:53:04.046Z,7.00
2022-10-06T04:55:34.926Z,6.80
2022-10-06T04:58:04.025Z,7.27
2022-10-06T05:00:33.086Z,7.40
2022-10-06T05:03:02.057Z,7.30
2022-10-06T05:05:32.017Z,7.40
2022-10-06T05:08:02.565Z,7.63
2022-10-06T05:10:33.401Z,6.77
2022-10-06T05:13:06.067Z,6.60
2022-10-06T05:15:35.556Z,7.30
2022-10-06T05:18:04.308Z,6.57
2022-10-06T05:20:32.639Z,7.97
2022-10-06T05:23:01.162Z,6.40
2022-10-06T05:25:30.728Z,7.40
2022-10-06T05:27:59.152Z,7.10
2022-10-06T05:30:29.860Z,6.80
2022-10-06T05:33:00.493Z,8.60
2022-10-06T05:35:30.241Z,6.50
2022-10-06T05:37:59.665Z,6.37
2022-10-06T05:40:29.487Z,7.07
2022-10-06T05:42:57.599Z,6.37
2022-10-06T05:45:27.240Z,7.27
2022-10-06T05:48:05.927Z,7.83
2022-10-06T05:50:39.450Z,7.07
2022-10-06T05:53:08.145Z,7.33
2022-10-06T05:55:39.779Z,6.63
2022-10-06T05:58:11.276Z,8.20
2022-10-06T06:00:39.968Z,7.27
2022-10-06T06:03:13.434Z,7.13
2022-10-06T06:05:44.812Z,7.30
2022-10-06T06:08:13.045Z,7.37
2022-10-06T06:10:41.220Z,7.80
2022-10-06T06:13:10.907Z,7.40
2022-10-06T06:16:04.234Z,7.07
2022-10-06T06:18:38.453Z,7.40
2022-10-06T06:21:10.573Z,8.13
2022-10-06T06:23:41.582Z,7.20
2022-10-06T06:26:12.087Z,8.03
2022-10-06T06:28:48.037Z,7.43
2022-10-06T06:31:21.273Z,7.40
2022-10-06T06:33:55.266Z,7.17
2022-10-06T06:36:27.755Z,8.23
2022-10-06T06:38:57.127Z,7.93
2022-10-06T06:41:27.781Z,8.33
2022-10-06T06:44:05.111Z,7.30
2022-10-06T06:46:40.083Z,7.50
2022-10-06T06:49:13.541Z,7.00
2022-10-06T06:52:03.345Z,7.80
2022-10-06T06:54:31.594Z,7.53
2022-10-06T06:57:05.027Z,7.10
2022-10-06T06:59:34.292Z,7.50
2022-10-06T07:02:05.217Z,8.27
2022-10-06T07:04:39.042Z,7.83
2022-10-06T07:07:12.442Z,7.37
2022-10-06T07:09:40.565Z,7.70
2022-10-06T07:12:11.658Z,7.83
2022-10-06T07:14:58.167Z,8.90
2022-10-06T07:17:46.062Z,7.60
2022-10-06T07:20:33.613Z,8.03
2022-10-06T07:23:15.737Z,7.37
2022-10-06T07:25:44.276Z,8.07
2022-10-06T07:28:13.139Z,8.70
2022-10-06T07:30:44.985Z,7.63
2022-10-06T07:33:18.191Z,8.13
2022-10-06T07:35:50.778Z,9.03
2022-10-06T07:38:26.629Z,8.03
2022-10-06T07:41:18.404Z,8.57
2022-10-06T07:43:49.178Z,8.60
2022-10-06T07:46:21.782Z,8.30
2022-10-06T07:49:21.682Z,9.17
2022-10-06T07:51:56.103Z,8.60
2022-10-06T07:54:27.397Z,9.13
2022-10-06T07:57:26.387Z,8.10
2022-10-06T07:59:57.058Z,9.63
2022-10-06T08:02:31.553Z,9.10
2022-10-06T08:05:02.904Z,9.10
2022-10-06T08:07:33.634Z,9.63
2022-10-06T08:10:02.281Z,8.50
2022-10-06T08:12:39.743Z,8.47
2022-10-06T08:15:12.105Z,9.27
2022-10-06T08:17:43.079Z,8.53
2022-10-06T08:20:12.980Z,9.43
2022-10-06T08:22:47.517Z,8.00
2022-10-06T08:25:16.885Z,9.93
2022-10-06T08:27:46.492Z,8.90
2022-10-06T08:30:16.227Z,7.97
2022-10-06T08:32:44.297Z,8.33
2022-10-06T08:35:14.255Z,9.17
2022-10-06T08:37:48.390Z,8.80
2022-10-06T08:40:16.577Z,8.90
2022-10-06T08:42:51.717Z,9.70
2022-10-06T08:45:24.359Z,8.77
2022-10-06T08:48:00.444Z,9.03
2022-10-06T08:50:33.700Z,7.50
2022-10-06T08:53:14.085Z,8.63
2022-10-06T08:55:49.088Z,8.10
2022-10-06T08:58:33.245Z,8.60
2022-10-06T09:01:16.856Z,6.97
2022-10-06T09:03:48.480Z,7.20
2022-10-06T09:06:26.284Z,6.80
2022-10-06T09:09:00.846Z,5.13
2022-10-06T09:11:43.018Z,2.53
2022-10-06T09:14:16.338Z,2.23
2022-10-06T09:16:49.820Z,2.10
2022-10-06T09:19:24.685Z,2.77
2022-10-06T09:21:54.457Z,2.23
2022-10-06T09:24:34.160Z,2.23
2022-10-06T09:27:16.574Z,2.57
2022-10-06T09:29:44.629Z,2.70
2022-10-06T09:32:14.733Z,2.20
2022-10-06T09:34:47.304Z,2.07
2022-10-06T09:37:15.567Z,2.17
2022-10-06T09:39:48.241Z,2.47
2022-10-06T09:42:22.923Z,2.10
2022-10-06T09:44:58.235Z,2.37
2022-10-06T09:47:46.005Z,2.30
2022-10-06T09:50:22.384Z,1.60
2022-10-06T09:53:17.627Z,2.40
2022-10-06T09:55:55.500Z,2.37
2022-10-06T09:58:34.351Z,2.00
2022-10-06T10:01:04.483Z,2.10
2022-10-06T10:04:02.355Z,2.47
2022-10-06T10:06:40.651Z,2.47
2022-10-06T10:09:24.541Z,2.30
2022-10-06T10:12:29.998Z,2.63
2022-10-06T10:15:01.952Z,2.40
2022-10-06T10:17:44.620Z,2.50
2022-10-06T10:20:35.368Z,2.73
2022-10-06T10:23:20.044Z,2.00
2022-10-06T10:26:08.709Z,1.90
2022-10-06T10:28:55.335Z,1.73
2022-10-06T10:31:32.282Z,2.53
2022-10-06T10:34:20.269Z,2.10
2022-10-06T10:36:55.908Z,1.90
2022-10-06T10:39:31.784Z,2.30
2022-10-06T10:42:05.472Z,2.40
2022-10-06T10:44:37.369Z,2.47
2022-10-06T10:47:23.513Z,2.40
2022-10-06T10:49:59.815Z,2.47
2022-10-06T10:52:30.498Z,2.60
2022-10-06T10:55:06.929Z,2.00
2022-10-06T10:57:38.594Z,2.20
2022-10-06T11:00:10.158Z,2.30
2022-10-06T11:02:38.855Z,2.23
2022-10-06T11:05:17.400Z,2.10
2022-10-06T11:07:49.536Z,2.17
2022-10-06T11:10:24.837Z,2.40
2022-10-06T11:13:09.334Z,1.90
2022-10-06T11:16:02.132Z,2.20
2022-10-06T11:18:41.416Z,2.40
2022-10-06T11:21:14.275Z,2.20
2022-10-06T11:23:49.764Z,2.37
2022-10-06T11:26:41.492Z,2.60
2022-10-06T11:29:22.897Z,2.30
2022-10-06T11:32:00.660Z,2.83
2022-10-06T11:34:29.553Z,2.60
2022-10-06T11:37:02.929Z,2.53
2022-10-06T11:39:37.225Z,3.07
2022-10-06T11:42:16.022Z,3.10
2022-10-06T11:44:49.958Z,2.20
2022-10-06T11:47:35.148Z,2.10
2022-10-06T11:50:35.699Z,2.30
2022-10-06T11:53:04.226Z,2.57
2022-10-06T11:55:33.212Z,2.33
2022-10-06T12:01:08.621Z,2.00
2022-10-06T12:04:05.637Z,2.50
2022-10-06T12:06:59.913Z,2.40
2022-10-06T12:09:51.934Z,2.50
2022-10-06T12:13:05.322Z,2.30
2022-10-06T12:19:00.558Z,2.20
2022-10-06T12:21:38.038Z,2.50
2022-10-06T12:24:22.706Z,2.67
2022-10-06T12:26:58.626Z,2.67
2022-10-06T12:29:43.596Z,2.37
2022-10-06T12:32:20.169Z,2.70
2022-10-06T12:34:58.720Z,2.83
2022-10-06T12:37:53.100Z,2.60
2022-10-06T12:40:47.879Z,2.40
2022-10-06T12:43:35.051Z,2.60
2022-10-06T12:46:07.541Z,2.70
2022-10-06T12:48:41.763Z,2.10
2022-10-06T12:51:26.159Z,2.80
2022-10-06T12:54:04.940Z,2.70
2022-10-06T12:56:37.261Z,2.60
2022-10-06T12:59:27.564Z,2.80
2022-10-06T13:01:57.721Z,3.50
2022-10-06T13:04:37.928Z,3.80
2022-10-06T13:07:12.874Z,2.80
2022-10-06T13:09:42.327Z,3.50
2022-10-06T13:12:31.265Z,6.20
2022-10-06T13:15:19.042Z,3.10
2022-10-06T13:17:51.104Z,4.73
2022-10-06T13:20:27.559Z,6.80
2022-10-06T13:23:01.179Z,3.40
2022-10-06T13:25:37.749Z,2.50
2022-10-06T13:28:07.286Z,3.00
2022-10-06T13:30:39.012Z,2.40
2022-10-06T13:33:08.574Z,2.80
2022-10-06T13:35:37.905Z,3.20
2022-10-06T13:38:06.927Z,2.60
2022-10-06T13:40:44.552Z,2.70
2022-10-06T13:43:19.191Z,3.13
2022-10-06T13:45:49.371Z,3.20
2022-10-06T13:48:28.696Z,3.07
2022-10-06T13:50:56.806Z,2.50
2022-10-06T13:53:31.901Z,4.13
2022-10-06T13:56:04.134Z,2.43
2022-10-06T13:58:32.801Z,2.97
2022-10-06T14:01:03.983Z,2.80
2022-10-06T14:06:19.043Z,3.47
2022-10-06T14:08:51.788Z,2.40
2022-10-06T14:11:28.867Z,2.70
2022-10-06T14:13:59.128Z,1.87
2022-10-06T14:16:28.448Z,2.47
2022-10-06T14:19:00.719Z,2.20
2022-10-06T14:21:34.024Z,2.20
2022-10-06T14:24:06.195Z,3.20
2022-10-06T14:26:39.989Z,2.57
2022-10-06T14:29:08.902Z,2.97
2022-10-06T14:31:41.009Z,2.30
2022-10-06T14:34:14.578Z,2.43
2022-10-06T14:36:43.903Z,2.67
2022-10-06T14:39:14.031Z,2.90
2022-10-06T14:41:45.540Z,2.87
2022-10-06T14:44:15.766Z,2.70
2022-10-06T14:46:48.780Z,2.17
2022-10-06T14:49:17.652Z,3.00
2022-10-06T14:51:47.936Z,2.30
2022-10-06T14:54:16.263Z,3.07
2022-10-06T14:56:46.260Z,2.67
2022-10-06T14:59:18.037Z,2.20
2022-10-06T15:01:46.841Z,2.30
2022-10-06T15:04:21.473Z,2.97
2022-10-06T15:07:07.372Z,2.40
2022-10-06T15:09:35.767Z,2.83
2022-10-06T15:12:05.797Z,2.03
2022-10-06T15:14:39.456Z,2.03
2022-10-06T15:17:08.153Z,2.73
2022-10-06T15:19:36.187Z,2.27
2022-10-06T15:22:06.422Z,2.70
2022-10-06T15:24:35.656Z,2.90
2022-10-06T15:27:25.104Z,2.87
2022-10-06T15:29:56.240Z,2.43
2022-10-06T15:32:24.367Z,2.90
2022-10-06T15:34:53.030Z,3.20
2022-10-06T15:37:22.171Z,2.50
2022-10-06T15:39:54.289Z,1.97
2022-10-06T15:42:26.235Z,2.30
2022-10-06T15:44:54.375Z,2.80
2022-10-06T15:47:25.399Z,3.10
2022-10-06T15:49:53.957Z,2.53
2022-10-06T15:52:22.962Z,3.30
2022-10-06T15:54:52.003Z,2.40
2022-10-06T15:57:22.520Z,2.60
2022-10-06T15:59:52.084Z,2.30
2022-10-06T16:02:23.003Z,2.10
2022-10-06T16:05:20.434Z,2.50
2022-10-06T16:07:50.817Z,2.23
2022-10-06T16:10:18.911Z,2.13
2022-10-06T16:12:47.277Z,2.40
2022-10-06T16:15:18.291Z,3.27
2022-10-06T16:17:48.479Z,2.20
2022-10-06T16:20:18.231Z,2.37
2022-10-06T16:22:46.667Z,3.07
2022-10-06T16:25:14.858Z,2.67
2022-10-06T16:27:43.003Z,2.83
2022-10-06T16:30:12.894Z,2.60
2022-10-06T16:32:42.868Z,3.10
2022-10-06T16:35:16.052Z,2.40
2022-10-06T16:37:49.913Z,2.60
2022-10-06T16:40:19.025Z,2.50
2022-10-06T16:42:47.097Z,2.90
2022-10-06T16:45:15.503Z,2.77
2022-10-06T16:47:45.201Z,2.47
2022-10-06T16:50:13.300Z,2.70
2022-10-06T16:52:41.582Z,3.67
2022-10-06T16:55:10.007Z,4.30
2022-10-06T16:57:38.092Z,3.80
2022-10-06T17:00:06.840Z,3.70
2022-10-06T17:02:35.080Z,3.20
2022-10-06T17:05:04.965Z,3.07
2022-10-06T17:07:34.121Z,3.03
2022-10-06T17:10:19.573Z,7.40
2022-10-06T17:12:48.512Z,9.40
2022-10-06T17:15:16.608Z,13.87
2022-10-06T17:17:44.687Z,10.30
2022-10-06T17:20:16.098Z,6.53
2022-10-06T17:22:44.510Z,4.83
2022-10-06T17:25:14.208Z,5.30
2022-10-06T17:27:42.318Z,4.40
2022-10-06T17:30:11.398Z,5.10
2022-10-06T17:32:39.585Z,5.77
2022-10-06T17:35:09.058Z,6.00
2022-10-06T17:37:40.410Z,5.77
2022-10-06T17:40:09.748Z,5.90
2022-10-06T17:42:38.904Z,5.13
2022-10-06T17:45:07.855Z,6.00
2022-10-06T17:47:35.971Z,6.40
2022-10-06T17:50:04.283Z,6.87
2022-10-06T17:52:32.963Z,7.83
2022-10-06T17:55:02.514Z,7.70
2022-10-06T17:57:31.411Z,7.70
2022-10-06T18:00:00.034Z,8.50
2022-10-06T18:02:28.511Z,7.40
2022-10-06T18:04:57.385Z,6.77
2022-10-06T18:07:25.952Z,6.80
2022-10-06T18:10:07.991Z,6.83
2022-10-06T18:12:39.020Z,7.47
2022-10-06T18:15:12.522Z,7.87
2022-10-06T18:17:41.608Z,7.70
2022-10-06T18:20:10.545Z,7.47
2022-10-06T18:22:38.995Z,8.10
2022-10-06T18:25:09.862Z,8.00
2022-10-06T18:27:39.683Z,8.40
2022-10-06T18:30:09.719Z,7.80
2022-10-06T18:34:46.809Z,8.33
2022-10-06T18:38:15.678Z,8.77
2022-10-06T18:40:44.958Z,7.97
2022-10-06T18:43:15.508Z,6.73
2022-10-06T18:45:57.774Z,7.27
2022-10-06T18:48:44.019Z,6.97
2022-10-06T18:51:12.417Z,5.70
2022-10-06T18:53:40.902Z,5.70
2022-10-06T18:56:11.241Z,5.57
2022-10-06T18:58:41.824Z,6.17
2022-10-06T19:01:10.242Z,6.47
2022-10-06T19:03:39.387Z,5.90
2022-10-06T19:06:14.280Z,5.50
2022-10-06T19:08:46.497Z,5.70
2022-10-06T19:11:34.601Z,5.63
2022-10-06T19:14:05.146Z,5.70
2022-10-06T19:16:34.046Z,5.40
2022-10-06T19:19:10.647Z,5.70
2022-10-06T19:21:41.628Z,4.90
2022-10-06T19:24:13.729Z,5.40
2022-10-06T19:26:45.991Z,5.50
2022-10-06T19:29:24.470Z,5.70
2022-10-06T19:31:55.447Z,5.57
2022-10-06T19:34:26.355Z,5.07
2022-10-06T19:36:58.768Z,6.00
2022-10-06T19:39:31.021Z,6.23
2022-10-06T19:42:18.069Z,6.40
2022-10-06T19:44:48.422Z,5.57
2022-10-06T19:47:19.720Z,5.70
2022-10-06T19:49:49.792Z,6.47
2022-10-06T19:52:19.644Z,5.73
2022-10-06T19:54:49.486Z,6.80
2022-10-06T19:57:19.137Z,7.40
2022-10-06T19:59:50.874Z,6.03
2022-10-06T20:02:19.296Z,5.50
2022-10-06T20:04:47.617Z,5.70
2022-10-06T20:07:16.314Z,6.10
2022-10-06T20:09:44.395Z,5.90
2022-10-06T20:12:13.063Z,5.80
2022-10-06T20:14:41.157Z,5.80
2022-10-06T20:17:10.627Z,6.27
2022-10-06T20:19:40.090Z,5.67
2022-10-06T20:22:08.312Z,6.80
2022-10-06T20:24:36.369Z,5.87
2022-10-06T20:27:04.539Z,6.47
2022-10-06T20:29:33.000Z,6.43
2022-10-06T20:32:01.560Z,6.63
2022-10-06T20:34:32.289Z,7.50
2022-10-06T20:37:05.007Z,7.93
2022-10-06T20:39:51.405Z,7.20
2022-10-06T20:42:21.252Z,7.17
2022-10-06T20:44:49.804Z,7.57
2022-10-06T20:47:18.344Z,7.20
2022-10-06T20:49:53.467Z,8.07
2022-10-06T20:52:23.248Z,7.70
2022-10-06T20:54:51.450Z,8.27
2022-10-06T20:57:20.441Z,8.37
2022-10-06T20:59:48.495Z,7.13
2022-10-06T21:02:17.483Z,8.30
2022-10-06T21:04:47.330Z,8.20
2022-10-06T21:07:16.443Z,9.13
2022-10-06T21:09:51.250Z,9.47
2022-10-06T21:12:20.377Z,8.77
2022-10-06T21:14:48.843Z,7.93
2022-10-06T21:17:17.507Z,9.47
2022-10-06T21:19:47.079Z,9.23
2022-10-06T21:22:15.586Z,8.90
2022-10-06T21:24:45.027Z,9.67
2022-10-06T21:27:13.484Z,9.33
2022-10-06T21:29:42.756Z,9.63
2022-10-06T21:32:13.463Z,9.00
2022-10-06T21:34:41.623Z,8.47
2022-10-06T21:37:14.771Z,10.17
2022-10-06T21:39:43.939Z,12.33
2022-10-06T21:42:12.419Z,11.33
2022-10-06T21:44:40.561Z,9.83
2022-10-06T21:47:12.059Z,9.40
2022-10-06T21:49:41.596Z,10.60
2022-10-06T21:52:13.762Z,8.53
2022-10-06T21:54:43.267Z,8.13
2022-10-06T21:57:11.527Z,8.30
2022-10-06T21:59:39.705Z,8.37
2022-10-06T22:02:08.152Z,8.20
2022-10-06T22:04:37.707Z,8.20
2022-10-06T22:07:05.842Z,8.10
2022-10-06T22:09:35.348Z,8.43
2022-10-06T22:12:03.498Z,7.33
2022-10-06T22:14:31.615Z,6.37
2022-10-06T22:17:00.501Z,6.03
2022-10-06T22:19:28.712Z,6.40
2022-10-06T22:21:56.839Z,5.40
2022-10-06T22:24:25.028Z,4.97
2022-10-06T22:26:54.581Z,5.23
2022-10-06T22:29:22.726Z,4.83
2022-10-06T22:31:50.984Z,4.83
2022-10-06T22:34:20.862Z,4.73
2022-10-06T22:36:49.007Z,4.87
2022-10-06T22:39:17.155Z,5.53
2022-10-06T22:41:45.592Z,4.93
2022-10-06T22:44:15.120Z,5.30
2022-10-06T22:46:43.326Z,4.77
2022-10-06T22:49:11.777Z,5.00
2022-10-06T22:51:39.929Z,5.10
2022-10-06T22:54:08.099Z,4.90
2022-10-06T22:56:36.303Z,5.63
2022-10-06T22:59:04.763Z,5.13
2022-10-06T23:01:34.271Z,5.50
2022-10-06T23:04:02.454Z,6.47
2022-10-06T23:06:31.547Z,5.60
2022-10-06T23:08:59.977Z,4.50
2022-10-06T23:11:28.367Z,5.67
2022-10-06T23:13:56.472Z,5.47
2022-10-06T23:16:24.828Z,6.00
2022-10-06T23:18:55.222Z,6.13
2022-10-06T23:21:27.409Z,6.37
2022-10-06T23:23:57.301Z,6.57
2022-10-06T23:26:25.640Z,7.20
2022-10-06T23:28:55.011Z,6.07
2022-10-06T23:31:23.511Z,6.80
2022-10-06T23:33:51.800Z,5.97
2022-10-06T23:36:21.580Z,5.50
2022-10-06T23:38:49.692Z,5.80
2022-10-06T23:41:18.232Z,6.90
2022-10-06T23:43:46.427Z,6.27
2022-10-06T23:46:15.210Z,6.80
2022-10-06T23:48:43.679Z,6.73
2022-10-06T23:51:13.240Z,6.60
2022-10-06T23:53:43.126Z,6.20
2022-10-06T23:56:11.895Z,7.23
2022-10-06T23:58:41.757Z,6.13
